Time,TemperatureF,DewpointF,PressureIn,WindDirection,WindDirectionDegrees,WindSpeedMPH,WindSpeedGustMPH,Humidity,HourlyPrecipIn,Conditions,Clouds,dailyrainin,SoftwareType,DateUTC
2013-10-29 00:00:00,82.8,78.2,29.89,ENE,68,4.0,10.0,86,0.00,,,0.00,VWS V14.01,2013-10-29 06:00:00,
2013-10-29 00:30:00,82.7,78.4,29.88,NE,45,4.0,11.0,87,0.00,,,0.00,VWS V14.01,2013-10-29 06:30:00,
2013-10-29 01:00:00,82.5,78.2,29.88,NE,45,3.0,11.0,87,0.00,,,0.00,VWS V14.01,2013-10-29 07:00:00,
2013-10-29 01:30:00,82.5,78.2,29.88,NE,45,4.0,11.0,87,0.00,,,0.00,VWS V14.01,2013-10-29 07:30:00,
2013-10-29 02:00:00,82.6,78.3,29.88,NE,45,4.0,12.0,87,0.00,,,0.00,VWS V14.01,2013-10-29 08:00:00,
2013-10-29 02:30:00,82.7,78.4,29.88,NE,45,3.0,10.0,87,0.00,,,0.00,VWS V14.01,2013-10-29 08:30:00,
2013-10-29 03:00:00,82.8,78.5,29.87,NE,45,4.0,11.0,87,0.00,,,0.00,VWS V14.01,2013-10-29 09:00:00,
2013-10-29 03:30:00,82.6,79.0,29.87,NE,45,4.0,11.0,89,0.00,,,0.00,VWS V14.01,2013-10-29 09:30:00,
2013-10-29 04:00:00,82.3,77.7,29.87,NE,45,4.0,12.0,86,0.00,,,0.00,VWS V14.01,2013-10-29 10:00:00,
2013-10-29 04:30:00,82.8,78.2,29.87,ENE,68,6.0,14.0,86,0.00,,,0.00,VWS V14.01,2013-10-29 10:30:00,
2013-10-29 05:00:00,82.1,77.5,29.90,ENE,68,5.0,12.0,86,0.00,,,0.00,VWS V14.01,2013-10-29 11:00:00,
2013-10-29 05:30:00,81.2,76.6,29.91,ENE,68,5.0,13.0,86,0.00,,,0.00,VWS V14.01,2013-10-29 11:30:00,
2013-10-29 06:00:00,82.1,76.4,29.92,ENE,68,5.0,15.0,83,0.00,,,0.00,VWS V14.01,2013-10-29 12:00:00,
2013-10-29 06:30:00,82.2,76.9,29.94,ENE,68,5.0,10.0,84,0.00,,,0.00,VWS V14.01,2013-10-29 12:30:00,
2013-10-29 07:00:00,83.2,78.2,29.94,ENE,68,2.0,7.0,85,0.00,,,0.00,VWS V14.01,2013-10-29 13:00:00,
2013-10-29 07:30:00,84.0,78.3,29.96,ENE,68,4.0,9.0,83,0.00,,,0.00,VWS V14.01,2013-10-29 13:30:00,
2013-10-29 08:00:00,85.2,78.7,29.96,ENE,68,6.0,14.0,81,0.00,,,0.00,VWS V14.01,2013-10-29 14:00:00,
2013-10-29 08:30:00,85.4,78.9,29.96,ENE,68,6.0,11.0,81,0.00,,,0.00,VWS V14.01,2013-10-29 14:30:00,
2013-10-29 09:00:00,85.2,78.7,29.97,NE,45,5.0,12.0,81,0.00,,,0.00,VWS V14.01,2013-10-29 15:00:00,
2013-10-29 09:30:00,83.8,78.4,29.98,ENE,68,5.0,12.0,84,0.00,,,0.00,VWS V14.01,2013-10-29 15:30:00,
2013-10-29 10:00:00,84.3,77.8,29.97,ENE,68,4.0,10.0,81,0.00,,,0.00,VWS V14.01,2013-10-29 16:00:00,
2013-10-29 10:30:00,85.5,77.5,29.97,ENE,68,4.0,13.0,77,0.00,,,0.00,VWS V14.01,2013-10-29 16:30:00,
2013-10-29 11:00:00,85.5,78.2,29.96,NE,45,5.0,11.0,79,0.00,,,0.00,VWS V14.01,2013-10-29 17:00:00,
2013-10-29 11:30:00,87.0,79.3,29.94,ENE,68,6.0,14.0,78,0.00,,,0.00,VWS V14.01,2013-10-29 17:30:00,
2013-10-29 12:00:00,85.1,78.6,29.92,ENE,68,6.0,12.0,81,0.00,,,0.00,VWS V14.01,2013-10-29 18:00:00,
2013-10-29 12:30:00,85.5,78.6,29.92,NE,45,5.0,14.0,80,0.00,,,0.00,VWS V14.01,2013-10-29 18:30:00,
2013-10-29 13:00:00,85.0,78.5,29.91,NE,45,6.0,13.0,81,0.00,,,0.00,VWS V14.01,2013-10-29 19:00:00,
2013-10-29 13:30:00,83.9,78.6,29.90,NE,45,6.0,16.0,84,0.00,,,0.00,VWS V14.01,2013-10-29 19:30:00,
2013-10-29 14:00:00,83.4,78.4,29.89,ENE,68,4.0,13.0,85,0.00,,,0.00,VWS V14.01,2013-10-29 20:00:00,
2013-10-29 14:30:00,83.4,78.1,29.88,NE,45,4.0,12.0,84,0.00,,,0.00,VWS V14.01,2013-10-29 20:30:00,
2013-10-29 15:00:00,83.4,78.1,29.88,NE,45,4.0,11.0,84,0.00,,,0.00,VWS V14.01,2013-10-29 21:00:00,
2013-10-29 15:30:00,83.9,78.2,29.87,NE,45,5.0,15.0,83,0.00,,,0.00,VWS V14.01,2013-10-29 21:30:00,
2013-10-29 16:00:00,84.3,78.6,29.88,NE,45,5.0,17.0,83,0.00,,,0.00,VWS V14.01,2013-10-29 22:00:00,
2013-10-29 16:30:00,83.9,78.2,29.89,NE,45,5.0,14.0,83,0.00,,,0.00,VWS V14.01,2013-10-29 22:30:00,
2013-10-29 17:00:00,82.8,77.1,29.89,NE,45,6.0,16.0,83,0.00,,,0.00,VWS V14.01,2013-10-29 23:00:00,
2013-10-29 17:30:00,82.5,76.4,29.89,NE,45,6.0,16.0,82,0.00,,,0.00,VWS V14.01,2013-10-29 23:30:00,
2013-10-29 18:00:00,82.7,77.0,29.91,NE,45,5.0,14.0,83,0.00,,,0.00,VWS V14.01,2013-10-30 00:00:00,
2013-10-29 18:30:00,82.6,77.3,29.92,NE,45,5.0,13.0,84,0.00,,,0.00,VWS V14.01,2013-10-30 00:30:00,
2013-10-29 19:00:00,82.6,77.3,29.93,NE,45,5.0,13.0,84,0.00,,,0.00,VWS V14.01,2013-10-30 01:00:00,
2013-10-29 19:30:00,82.7,77.7,29.94,NE,45,4.0,12.0,85,0.00,,,0.00,VWS V14.01,2013-10-30 01:30:00,
2013-10-29 20:00:00,83.0,78.0,29.95,NE,45,5.0,14.0,85,0.00,,,0.00,VWS V14.01,2013-10-30 02:00:00,
2013-10-29 20:30:00,83.1,78.1,29.95,NE,45,5.0,13.0,85,0.00,,,0.00,VWS V14.01,2013-10-30 02:30:00,
2013-10-29 21:00:00,82.8,78.2,29.95,NE,45,5.0,13.0,86,0.00,,,0.00,VWS V14.01,2013-10-30 03:00:00,
2013-10-29 21:30:00,82.9,78.3,29.95,NE,45,6.0,16.0,86,0.00,,,0.00,VWS V14.01,2013-10-30 03:30:00,
2013-10-29 22:00:00,82.8,78.2,29.95,NE,45,5.0,13.0,86,0.00,,,0.00,VWS V14.01,2013-10-30 04:00:00,
2013-10-29 22:30:00,83.0,78.0,29.95,NE,45,6.0,15.0,85,0.00,,,0.00,VWS V14.01,2013-10-30 04:30:00,
2013-10-29 23:00:00,82.8,78.2,29.94,NE,45,5.0,14.0,86,0.00,,,0.00,VWS V14.01,2013-10-30 05:00:00,
2013-10-29 23:30:00,82.8,77.8,29.93,NE,45,6.0,15.0,85,0.00,,,0.00,VWS V14.01,2013-10-30 05:30:00,